sensor_id;sensor_type;location;lat;lon;timestamp;P1;durP1;ratioP1;P2;durP2;ratioP2
76576;SDS011;65441;44.748;37.600;2022-12-08T00:01:14;7.55;;;1.90;;
76576;SDS011;65441;44.748;37.600;2022-12-08T00:03:44;5.00;;;1.80;;
76576;SDS011;65441;44.748;37.600;2022-12-08T00:06:17;8.30;;;2.10;;
76576;SDS011;65441;44.748;37.600;2022-12-08T00:09:11;4.75;;;1.50;;
76576;SDS011;65441;44.748;37.600;2022-12-08T00:11:52;8.45;;;1.90;;
76576;SDS011;65441;44.748;37.600;2022-12-08T00:14:23;5.95;;;1.95;;
76576;SDS011;65441;44.748;37.600;2022-12-08T00:16:54;7.95;;;2.30;;
76576;SDS011;65441;44.748;37.600;2022-12-08T00:19:23;11.98;;;3.00;;
76576;SDS011;65441;44.748;37.600;2022-12-08T00:21:54;6.38;;;1.83;;
76576;SDS011;65441;44.748;37.600;2022-12-08T00:24:24;7.88;;;2.45;;
76576;SDS011;65441;44.748;37.600;2022-12-08T00:26:57;9.95;;;2.72;;
76576;SDS011;65441;44.748;37.600;2022-12-08T00:29:26;6.50;;;2.20;;
76576;SDS011;65441;44.748;37.600;2022-12-08T00:31:55;9.38;;;2.40;;
76576;SDS011;65441;44.748;37.600;2022-12-08T00:34:24;5.28;;;2.08;;
76576;SDS011;65441;44.748;37.600;2022-12-08T00:36:54;5.15;;;1.77;;
76576;SDS011;65441;44.748;37.600;2022-12-08T00:39:23;5.07;;;1.77;;
76576;SDS011;65441;44.748;37.600;2022-12-08T00:41:52;7.47;;;1.88;;
76576;SDS011;65441;44.748;37.600;2022-12-08T00:44:38;5.03;;;1.70;;
76576;SDS011;65441;44.748;37.600;2022-12-08T00:47:07;7.30;;;1.60;;
76576;SDS011;65441;44.748;37.600;2022-12-08T00:49:37;4.50;;;1.65;;
76576;SDS011;65441;44.748;37.600;2022-12-08T00:52:07;4.97;;;1.50;;
76576;SDS011;65441;44.748;37.600;2022-12-08T00:54:36;5.70;;;1.25;;
76576;SDS011;65441;44.748;37.600;2022-12-08T00:57:05;5.72;;;1.70;;
76576;SDS011;65441;44.748;37.600;2022-12-08T00:59:34;5.10;;;1.65;;
76576;SDS011;65441;44.748;37.600;2022-12-08T01:02:02;5.45;;;1.60;;
76576;SDS011;65441;44.748;37.600;2022-12-08T01:04:31;6.13;;;1.48;;
76576;SDS011;65441;44.748;37.600;2022-12-08T01:07:00;4.72;;;1.67;;
76576;SDS011;65441;44.748;37.600;2022-12-08T01:09:30;5.47;;;1.60;;
76576;SDS011;65441;44.748;37.600;2022-12-08T01:11:59;5.40;;;1.58;;
76576;SDS011;65441;44.748;37.600;2022-12-08T01:14:28;7.85;;;2.10;;
76576;SDS011;65441;44.748;37.600;2022-12-08T01:16:57;6.35;;;2.10;;
76576;SDS011;65441;44.748;37.600;2022-12-08T01:19:26;8.18;;;1.70;;
76576;SDS011;65441;44.748;37.600;2022-12-08T01:21:56;5.60;;;1.52;;
76576;SDS011;65441;44.748;37.600;2022-12-08T01:24:25;4.70;;;1.70;;
76576;SDS011;65441;44.748;37.600;2022-12-08T01:26:55;4.75;;;1.63;;
76576;SDS011;65441;44.748;37.600;2022-12-08T01:29:25;5.07;;;1.45;;
76576;SDS011;65441;44.748;37.600;2022-12-08T01:31:56;6.72;;;1.95;;
76576;SDS011;65441;44.748;37.600;2022-12-08T01:34:25;4.15;;;1.40;;
76576;SDS011;65441;44.748;37.600;2022-12-08T01:36:54;4.05;;;1.40;;
76576;SDS011;65441;44.748;37.600;2022-12-08T01:39:23;7.85;;;1.63;;
76576;SDS011;65441;44.748;37.600;2022-12-08T01:41:52;5.35;;;1.50;;
76576;SDS011;65441;44.748;37.600;2022-12-08T01:47:24;8.02;;;1.92;;
76576;SDS011;65441;44.748;37.600;2022-12-08T01:49:57;4.95;;;1.50;;
76576;SDS011;65441;44.748;37.600;2022-12-08T01:52:28;7.05;;;1.60;;
76576;SDS011;65441;44.748;37.600;2022-12-08T01:55:01;4.60;;;1.60;;
76576;SDS011;65441;44.748;37.600;2022-12-08T01:57:34;4.55;;;1.50;;
76576;SDS011;65441;44.748;37.600;2022-12-08T02:00:10;4.32;;;1.50;;
76576;SDS011;65441;44.748;37.600;2022-12-08T02:02:43;4.90;;;1.65;;
76576;SDS011;65441;44.748;37.600;2022-12-08T02:05:17;6.28;;;1.95;;
76576;SDS011;65441;44.748;37.600;2022-12-08T02:07:48;5.40;;;1.50;;
76576;SDS011;65441;44.748;37.600;2022-12-08T02:10:18;7.20;;;1.92;;
76576;SDS011;65441;44.748;37.600;2022-12-08T02:12:48;7.05;;;1.77;;
76576;SDS011;65441;44.748;37.600;2022-12-08T02:15:20;4.63;;;1.50;;
76576;SDS011;65441;44.748;37.600;2022-12-08T02:18:00;4.75;;;1.60;;
76576;SDS011;65441;44.748;37.600;2022-12-08T02:20:44;7.32;;;1.80;;
76576;SDS011;65441;44.748;37.600;2022-12-08T02:23:23;4.78;;;1.33;;
76576;SDS011;65441;44.748;37.600;2022-12-08T02:26:10;6.88;;;1.83;;
76576;SDS011;65441;44.748;37.600;2022-12-08T02:29:07;4.97;;;1.50;;
76576;SDS011;65441;44.748;37.600;2022-12-08T02:32:04;4.38;;;1.60;;
76576;SDS011;65441;44.748;37.600;2022-12-08T02:34:49;6.05;;;1.40;;
76576;SDS011;65441;44.748;37.600;2022-12-08T02:37:25;7.65;;;1.50;;
76576;SDS011;65441;44.748;37.600;2022-12-08T02:39:59;4.20;;;1.40;;
76576;SDS011;65441;44.748;37.600;2022-12-08T02:42:36;4.53;;;1.30;;
76576;SDS011;65441;44.748;37.600;2022-12-08T02:45:10;4.85;;;1.30;;
76576;SDS011;65441;44.748;37.600;2022-12-08T02:47:44;7.78;;;1.50;;
76576;SDS011;65441;44.748;37.600;2022-12-08T02:50:15;4.95;;;1.42;;
76576;SDS011;65441;44.748;37.600;2022-12-08T02:52:44;7.07;;;1.45;;
76576;SDS011;65441;44.748;37.600;2022-12-08T02:55:17;5.40;;;1.30;;
76576;SDS011;65441;44.748;37.600;2022-12-08T02:58:02;4.75;;;1.48;;
76576;SDS011;65441;44.748;37.600;2022-12-08T03:01:07;4.35;;;1.52;;
76576;SDS011;65441;44.748;37.600;2022-12-08T03:03:45;5.50;;;1.30;;
76576;SDS011;65441;44.748;37.600;2022-12-08T03:06:22;4.00;;;1.23;;
76576;SDS011;65441;44.748;37.600;2022-12-08T03:08:57;4.30;;;1.50;;
76576;SDS011;65441;44.748;37.600;2022-12-08T03:11:32;4.75;;;1.48;;
76576;SDS011;65441;44.748;37.600;2022-12-08T03:14:06;4.82;;;1.30;;
76576;SDS011;65441;44.748;37.600;2022-12-08T03:16:40;6.97;;;1.60;;
76576;SDS011;65441;44.748;37.600;2022-12-08T03:19:12;5.45;;;1.63;;
76576;SDS011;65441;44.748;37.600;2022-12-08T03:21:47;3.40;;;1.08;;
76576;SDS011;65441;44.748;37.600;2022-12-08T03:24:20;3.78;;;1.33;;
76576;SDS011;65441;44.748;37.600;2022-12-08T03:26:51;4.35;;;1.48;;
76576;SDS011;65441;44.748;37.600;2022-12-08T03:29:24;5.57;;;1.50;;
76576;SDS011;65441;44.748;37.600;2022-12-08T03:31:55;5.47;;;1.20;;
76576;SDS011;65441;44.748;37.600;2022-12-08T03:34:27;4.45;;;1.10;;
76576;SDS011;65441;44.748;37.600;2022-12-08T03:37:00;3.95;;;1.48;;
76576;SDS011;65441;44.748;37.600;2022-12-08T03:39:29;5.22;;;1.63;;
76576;SDS011;65441;44.748;37.600;2022-12-08T03:41:58;6.03;;;1.70;;
76576;SDS011;65441;44.748;37.600;2022-12-08T03:44:27;6.00;;;1.67;;
76576;SDS011;65441;44.748;37.600;2022-12-08T03:46:56;4.95;;;1.90;;
76576;SDS011;65441;44.748;37.600;2022-12-08T03:49:24;6.10;;;1.50;;
76576;SDS011;65441;44.748;37.600;2022-12-08T03:51:53;5.72;;;1.95;;
76576;SDS011;65441;44.748;37.600;2022-12-08T03:54:23;5.45;;;1.88;;
76576;SDS011;65441;44.748;37.600;2022-12-08T03:56:52;4.60;;;1.73;;
76576;SDS011;65441;44.748;37.600;2022-12-08T03:59:21;4.80;;;1.65;;
76576;SDS011;65441;44.748;37.600;2022-12-08T04:01:49;4.75;;;1.77;;
76576;SDS011;65441;44.748;37.600;2022-12-08T04:04:18;5.35;;;1.80;;
76576;SDS011;65441;44.748;37.600;2022-12-08T04:06:47;4.80;;;1.60;;
76576;SDS011;65441;44.748;37.600;2022-12-08T04:09:16;5.15;;;1.90;;
76576;SDS011;65441;44.748;37.600;2022-12-08T04:11:46;5.53;;;1.80;;
76576;SDS011;65441;44.748;37.600;2022-12-08T04:14:15;5.68;;;1.80;;
76576;SDS011;65441;44.748;37.600;2022-12-08T04:16:44;4.60;;;1.42;;
76576;SDS011;65441;44.748;37.600;2022-12-08T04:19:12;5.93;;;1.63;;
76576;SDS011;65441;44.748;37.600;2022-12-08T04:21:41;8.35;;;2.25;;
76576;SDS011;65441;44.748;37.600;2022-12-08T04:24:10;4.70;;;1.70;;
76576;SDS011;65441;44.748;37.600;2022-12-08T04:26:39;5.40;;;1.95;;
76576;SDS011;65441;44.748;37.600;2022-12-08T04:29:09;10.05;;;1.83;;
76576;SDS011;65441;44.748;37.600;2022-12-08T04:31:38;5.13;;;1.80;;
76576;SDS011;65441;44.748;37.600;2022-12-08T04:34:08;5.85;;;1.75;;
76576;SDS011;65441;44.748;37.600;2022-12-08T04:36:37;6.65;;;1.70;;
76576;SDS011;65441;44.748;37.600;2022-12-08T04:39:05;8.45;;;1.95;;
76576;SDS011;65441;44.748;37.600;2022-12-08T04:41:34;6.90;;;2.08;;
76576;SDS011;65441;44.748;37.600;2022-12-08T04:44:03;5.68;;;1.95;;
76576;SDS011;65441;44.748;37.600;2022-12-08T04:46:33;7.75;;;2.08;;
76576;SDS011;65441;44.748;37.600;2022-12-08T04:49:02;4.75;;;1.67;;
76576;SDS011;65441;44.748;37.600;2022-12-08T04:51:31;6.28;;;2.00;;
76576;SDS011;65441;44.748;37.600;2022-12-08T04:54:00;5.32;;;1.90;;
76576;SDS011;65441;44.748;37.600;2022-12-08T04:56:29;8.10;;;2.30;;
76576;SDS011;65441;44.748;37.600;2022-12-08T04:58:58;5.43;;;1.65;;
76576;SDS011;65441;44.748;37.600;2022-12-08T05:01:26;5.88;;;1.90;;
76576;SDS011;65441;44.748;37.600;2022-12-08T05:03:57;6.32;;;1.80;;
76576;SDS011;65441;44.748;37.600;2022-12-08T05:06:25;7.53;;;2.30;;
76576;SDS011;65441;44.748;37.600;2022-12-08T05:08:54;6.25;;;1.83;;
76576;SDS011;65441;44.748;37.600;2022-12-08T05:11:23;8.32;;;1.92;;
76576;SDS011;65441;44.748;37.600;2022-12-08T05:13:52;5.22;;;1.88;;
76576;SDS011;65441;44.748;37.600;2022-12-08T05:16:20;6.65;;;2.20;;
76576;SDS011;65441;44.748;37.600;2022-12-08T05:18:49;5.20;;;1.95;;
76576;SDS011;65441;44.748;37.600;2022-12-08T05:21:19;6.65;;;2.15;;
76576;SDS011;65441;44.748;37.600;2022-12-08T05:23:48;6.85;;;2.25;;
76576;SDS011;65441;44.748;37.600;2022-12-08T05:26:17;7.18;;;2.28;;
76576;SDS011;65441;44.748;37.600;2022-12-08T05:28:46;5.40;;;1.88;;
76576;SDS011;65441;44.748;37.600;2022-12-08T05:31:15;8.48;;;2.30;;
76576;SDS011;65441;44.748;37.600;2022-12-08T05:33:44;5.90;;;2.13;;
76576;SDS011;65441;44.748;37.600;2022-12-08T05:36:13;8.40;;;2.20;;
76576;SDS011;65441;44.748;37.600;2022-12-08T05:38:44;7.43;;;2.13;;
76576;SDS011;65441;44.748;37.600;2022-12-08T05:41:15;5.28;;;1.73;;
76576;SDS011;65441;44.748;37.600;2022-12-08T05:43:45;5.32;;;1.92;;
76576;SDS011;65441;44.748;37.600;2022-12-08T05:46:15;7.20;;;2.00;;
76576;SDS011;65441;44.748;37.600;2022-12-08T05:48:44;7.68;;;1.90;;
76576;SDS011;65441;44.748;37.600;2022-12-08T05:51:15;8.43;;;2.22;;
76576;SDS011;65441;44.748;37.600;2022-12-08T05:53:48;6.75;;;2.17;;
76576;SDS011;65441;44.748;37.600;2022-12-08T05:56:18;6.85;;;2.35;;
76576;SDS011;65441;44.748;37.600;2022-12-08T05:58:48;7.07;;;2.47;;
76576;SDS011;65441;44.748;37.600;2022-12-08T06:01:20;6.05;;;2.13;;
76576;SDS011;65441;44.748;37.600;2022-12-08T06:03:50;7.40;;;2.50;;
76576;SDS011;65441;44.748;37.600;2022-12-08T06:06:19;7.25;;;2.50;;
76576;SDS011;65441;44.748;37.600;2022-12-08T06:08:50;7.63;;;2.08;;
76576;SDS011;65441;44.748;37.600;2022-12-08T06:11:19;8.45;;;2.42;;
76576;SDS011;65441;44.748;37.600;2022-12-08T06:14:01;7.80;;;2.30;;
76576;SDS011;65441;44.748;37.600;2022-12-08T06:16:30;5.75;;;2.13;;
76576;SDS011;65441;44.748;37.600;2022-12-08T06:18:59;5.35;;;2.00;;
76576;SDS011;65441;44.748;37.600;2022-12-08T06:21:28;8.07;;;2.38;;
76576;SDS011;65441;44.748;37.600;2022-12-08T06:23:58;10.68;;;3.00;;
76576;SDS011;65441;44.748;37.600;2022-12-08T06:26:27;7.55;;;2.58;;
76576;SDS011;65441;44.748;37.600;2022-12-08T06:28:56;6.10;;;2.22;;
76576;SDS011;65441;44.748;37.600;2022-12-08T06:31:26;6.72;;;2.30;;
76576;SDS011;65441;44.748;37.600;2022-12-08T06:33:55;5.55;;;2.15;;
76576;SDS011;65441;44.748;37.600;2022-12-08T06:36:24;6.97;;;2.20;;
76576;SDS011;65441;44.748;37.600;2022-12-08T06:38:54;16.65;;;3.83;;
76576;SDS011;65441;44.748;37.600;2022-12-08T06:41:25;9.57;;;2.95;;
76576;SDS011;65441;44.748;37.600;2022-12-08T06:43:54;6.78;;;2.35;;
76576;SDS011;65441;44.748;37.600;2022-12-08T06:46:24;7.68;;;2.58;;
76576;SDS011;65441;44.748;37.600;2022-12-08T06:48:52;8.93;;;3.53;;
76576;SDS011;65441;44.748;37.600;2022-12-08T06:51:21;10.13;;;3.70;;
76576;SDS011;65441;44.748;37.600;2022-12-08T06:53:50;9.00;;;3.28;;
76576;SDS011;65441;44.748;37.600;2022-12-08T06:56:19;9.27;;;3.47;;
76576;SDS011;65441;44.748;37.600;2022-12-08T06:58:51;7.43;;;3.00;;
76576;SDS011;65441;44.748;37.600;2022-12-08T07:01:20;9.13;;;3.03;;
76576;SDS011;65441;44.748;37.600;2022-12-08T07:03:49;10.05;;;3.10;;
76576;SDS011;65441;44.748;37.600;2022-12-08T07:06:19;9.45;;;3.33;;
76576;SDS011;65441;44.748;37.600;2022-12-08T07:08:50;8.93;;;3.35;;
76576;SDS011;65441;44.748;37.600;2022-12-08T07:11:19;9.45;;;3.25;;
76576;SDS011;65441;44.748;37.600;2022-12-08T07:13:47;9.75;;;2.72;;
76576;SDS011;65441;44.748;37.600;2022-12-08T07:16:18;9.43;;;2.85;;
76576;SDS011;65441;44.748;37.600;2022-12-08T07:18:47;12.07;;;4.00;;
76576;SDS011;65441;44.748;37.600;2022-12-08T07:21:16;13.15;;;3.90;;
76576;SDS011;65441;44.748;37.600;2022-12-08T07:23:45;8.05;;;3.10;;
76576;SDS011;65441;44.748;37.600;2022-12-08T07:26:15;8.70;;;3.20;;
76576;SDS011;65441;44.748;37.600;2022-12-08T07:28:44;8.10;;;3.28;;
76576;SDS011;65441;44.748;37.600;2022-12-08T07:31:16;10.10;;;3.28;;
76576;SDS011;65441;44.748;37.600;2022-12-08T07:33:48;9.05;;;2.83;;
76576;SDS011;65441;44.748;37.600;2022-12-08T07:36:17;8.35;;;2.78;;
76576;SDS011;65441;44.748;37.600;2022-12-08T07:38:46;7.53;;;2.88;;
76576;SDS011;65441;44.748;37.600;2022-12-08T07:41:16;8.45;;;2.85;;
76576;SDS011;65441;44.748;37.600;2022-12-08T07:43:47;7.45;;;2.80;;
76576;SDS011;65441;44.748;37.600;2022-12-08T07:46:17;8.15;;;3.22;;
76576;SDS011;65441;44.748;37.600;2022-12-08T07:48:49;8.82;;;2.70;;
76576;SDS011;65441;44.748;37.600;2022-12-08T07:51:19;10.10;;;2.85;;
76576;SDS011;65441;44.748;37.600;2022-12-08T07:53:48;8.73;;;3.00;;
76576;SDS011;65441;44.748;37.600;2022-12-08T07:56:17;8.43;;;3.40;;
76576;SDS011;65441;44.748;37.600;2022-12-08T07:58:46;10.02;;;3.33;;
76576;SDS011;65441;44.748;37.600;2022-12-08T08:01:21;9.93;;;3.38;;
76576;SDS011;65441;44.748;37.600;2022-12-08T08:03:52;8.25;;;3.10;;
76576;SDS011;65441;44.748;37.600;2022-12-08T08:06:21;12.10;;;3.42;;
76576;SDS011;65441;44.748;37.600;2022-12-08T08:08:51;9.45;;;3.72;;
76576;SDS011;65441;44.748;37.600;2022-12-08T08:11:20;7.40;;;3.03;;
76576;SDS011;65441;44.748;37.600;2022-12-08T08:13:49;6.90;;;2.92;;
76576;SDS011;65441;44.748;37.600;2022-12-08T08:16:18;9.63;;;2.60;;
76576;SDS011;65441;44.748;37.600;2022-12-08T08:18:49;9.88;;;3.47;;
76576;SDS011;65441;44.748;37.600;2022-12-08T08:21:18;11.20;;;4.10;;
76576;SDS011;65441;44.748;37.600;2022-12-08T08:23:48;10.23;;;3.33;;
76576;SDS011;65441;44.748;37.600;2022-12-08T08:26:16;9.30;;;3.50;;
76576;SDS011;65441;44.748;37.600;2022-12-08T08:28:45;9.30;;;3.58;;
76576;SDS011;65441;44.748;37.600;2022-12-08T08:31:15;11.00;;;3.65;;
76576;SDS011;65441;44.748;37.600;2022-12-08T08:33:44;9.77;;;3.25;;
76576;SDS011;65441;44.748;37.600;2022-12-08T08:36:16;8.50;;;3.20;;
76576;SDS011;65441;44.748;37.600;2022-12-08T08:38:45;9.95;;;3.00;;
76576;SDS011;65441;44.748;37.600;2022-12-08T08:41:14;7.70;;;2.30;;
76576;SDS011;65441;44.748;37.600;2022-12-08T08:43:43;10.60;;;2.85;;
76576;SDS011;65441;44.748;37.600;2022-12-08T08:46:12;8.25;;;3.15;;
76576;SDS011;65441;44.748;37.600;2022-12-08T08:48:41;8.57;;;3.00;;
76576;SDS011;65441;44.748;37.600;2022-12-08T08:51:10;5.50;;;2.53;;
76576;SDS011;65441;44.748;37.600;2022-12-08T08:53:41;8.50;;;3.13;;
76576;SDS011;65441;44.748;37.600;2022-12-08T08:56:11;9.32;;;2.40;;
76576;SDS011;65441;44.748;37.600;2022-12-08T08:58:40;7.15;;;2.80;;
76576;SDS011;65441;44.748;37.600;2022-12-08T09:01:13;6.53;;;2.70;;
76576;SDS011;65441;44.748;37.600;2022-12-08T09:03:44;7.50;;;2.40;;
76576;SDS011;65441;44.748;37.600;2022-12-08T09:06:13;9.95;;;3.10;;
76576;SDS011;65441;44.748;37.600;2022-12-08T09:08:44;5.95;;;2.72;;
76576;SDS011;65441;44.748;37.600;2022-12-08T09:11:20;8.38;;;2.97;;
76576;SDS011;65441;44.748;37.600;2022-12-08T09:13:50;8.13;;;3.30;;
76576;SDS011;65441;44.748;37.600;2022-12-08T09:16:22;7.25;;;2.53;;
76576;SDS011;65441;44.748;37.600;2022-12-08T09:18:51;7.13;;;2.88;;
76576;SDS011;65441;44.748;37.600;2022-12-08T09:21:20;7.03;;;2.45;;
76576;SDS011;65441;44.748;37.600;2022-12-08T09:23:53;7.43;;;2.60;;
76576;SDS011;65441;44.748;37.600;2022-12-08T09:26:23;9.77;;;3.15;;
76576;SDS011;65441;44.748;37.600;2022-12-08T09:28:53;8.55;;;3.10;;
76576;SDS011;65441;44.748;37.600;2022-12-08T09:31:24;7.85;;;2.92;;
76576;SDS011;65441;44.748;37.600;2022-12-08T09:33:53;9.05;;;2.63;;
76576;SDS011;65441;44.748;37.600;2022-12-08T09:36:21;8.75;;;3.03;;
76576;SDS011;65441;44.748;37.600;2022-12-08T09:38:50;6.78;;;2.47;;
76576;SDS011;65441;44.748;37.600;2022-12-08T09:41:22;9.13;;;3.13;;
76576;SDS011;65441;44.748;37.600;2022-12-08T09:44:01;8.35;;;3.03;;
76576;SDS011;65441;44.748;37.600;2022-12-08T09:46:39;8.23;;;3.00;;
76576;SDS011;65441;44.748;37.600;2022-12-08T09:49:10;8.48;;;3.10;;
76576;SDS011;65441;44.748;37.600;2022-12-08T09:51:43;7.93;;;3.08;;
76576;SDS011;65441;44.748;37.600;2022-12-08T09:54:14;7.28;;;2.97;;
76576;SDS011;65441;44.748;37.600;2022-12-08T09:56:48;8.57;;;2.78;;
76576;SDS011;65441;44.748;37.600;2022-12-08T09:59:21;8.15;;;2.88;;
76576;SDS011;65441;44.748;37.600;2022-12-08T10:01:51;8.60;;;3.28;;
76576;SDS011;65441;44.748;37.600;2022-12-08T10:04:22;10.45;;;3.20;;
76576;SDS011;65441;44.748;37.600;2022-12-08T10:06:56;11.05;;;3.20;;
76576;SDS011;65441;44.748;37.600;2022-12-08T10:09:34;8.35;;;3.03;;
76576;SDS011;65441;44.748;37.600;2022-12-08T10:12:13;8.38;;;3.05;;
76576;SDS011;65441;44.748;37.600;2022-12-08T10:14:46;14.48;;;3.03;;
76576;SDS011;65441;44.748;37.600;2022-12-08T10:17:20;11.20;;;3.00;;
76576;SDS011;65441;44.748;37.600;2022-12-08T10:19:54;14.25;;;4.22;;
76576;SDS011;65441;44.748;37.600;2022-12-08T10:22:30;10.80;;;3.42;;
76576;SDS011;65441;44.748;37.600;2022-12-08T10:25:04;9.00;;;3.08;;
76576;SDS011;65441;44.748;37.600;2022-12-08T10:27:40;16.67;;;6.57;;
76576;SDS011;65441;44.748;37.600;2022-12-08T10:30:10;46.03;;;16.10;;
76576;SDS011;65441;44.748;37.600;2022-12-08T10:32:42;12.38;;;4.03;;
76576;SDS011;65441;44.748;37.600;2022-12-08T10:35:13;134.35;;;41.90;;
76576;SDS011;65441;44.748;37.600;2022-12-08T10:37:47;135.93;;;42.42;;
76576;SDS011;65441;44.748;37.600;2022-12-08T10:40:23;69.75;;;23.30;;
76576;SDS011;65441;44.748;37.600;2022-12-08T10:42:57;146.55;;;54.70;;
76576;SDS011;65441;44.748;37.600;2022-12-08T10:45:27;113.90;;;49.08;;
76576;SDS011;65441;44.748;37.600;2022-12-08T10:47:58;14.05;;;5.85;;
76576;SDS011;65441;44.748;37.600;2022-12-08T10:50:33;17.63;;;8.60;;
76576;SDS011;65441;44.748;37.600;2022-12-08T10:53:10;18.85;;;8.48;;
76576;SDS011;65441;44.748;37.600;2022-12-08T10:55:41;12.20;;;5.70;;
76576;SDS011;65441;44.748;37.600;2022-12-08T10:58:27;9.27;;;3.67;;
76576;SDS011;65441;44.748;37.600;2022-12-08T11:01:00;28.88;;;14.98;;
76576;SDS011;65441;44.748;37.600;2022-12-08T11:03:33;9.05;;;4.05;;
76576;SDS011;65441;44.748;37.600;2022-12-08T11:06:08;8.80;;;3.92;;
76576;SDS011;65441;44.748;37.600;2022-12-08T11:08:43;9.10;;;3.22;;
76576;SDS011;65441;44.748;37.600;2022-12-08T11:11:15;10.20;;;3.60;;
76576;SDS011;65441;44.748;37.600;2022-12-08T11:13:46;10.07;;;3.05;;
76576;SDS011;65441;44.748;37.600;2022-12-08T11:16:17;9.85;;;3.20;;
76576;SDS011;65441;44.748;37.600;2022-12-08T11:18:54;9.25;;;3.85;;
76576;SDS011;65441;44.748;37.600;2022-12-08T11:21:33;7.45;;;3.20;;
76576;SDS011;65441;44.748;37.600;2022-12-08T11:24:17;11.30;;;3.10;;
76576;SDS011;65441;44.748;37.600;2022-12-08T11:26:50;7.57;;;2.85;;
76576;SDS011;65441;44.748;37.600;2022-12-08T11:29:23;9.57;;;3.03;;
76576;SDS011;65441;44.748;37.600;2022-12-08T11:31:53;8.02;;;3.03;;
76576;SDS011;65441;44.748;37.600;2022-12-08T11:34:28;8.45;;;3.28;;
76576;SDS011;65441;44.748;37.600;2022-12-08T11:37:02;9.07;;;3.50;;
76576;SDS011;65441;44.748;37.600;2022-12-08T11:39:34;8.23;;;3.20;;
76576;SDS011;65441;44.748;37.600;2022-12-08T11:42:09;8.68;;;2.92;;
76576;SDS011;65441;44.748;37.600;2022-12-08T11:44:45;9.88;;;3.10;;
76576;SDS011;65441;44.748;37.600;2022-12-08T11:47:21;12.45;;;3.53;;
76576;SDS011;65441;44.748;37.600;2022-12-08T11:49:54;9.65;;;3.38;;
76576;SDS011;65441;44.748;37.600;2022-12-08T11:52:29;8.73;;;3.42;;
76576;SDS011;65441;44.748;37.600;2022-12-08T11:55:14;9.25;;;3.65;;
76576;SDS011;65441;44.748;37.600;2022-12-08T11:57:53;7.78;;;3.08;;
76576;SDS011;65441;44.748;37.600;2022-12-08T12:00:28;10.60;;;3.25;;
76576;SDS011;65441;44.748;37.600;2022-12-08T12:02:59;11.63;;;4.10;;
76576;SDS011;65441;44.748;37.600;2022-12-08T12:05:36;10.93;;;3.65;;
76576;SDS011;65441;44.748;37.600;2022-12-08T12:08:14;11.52;;;3.40;;
76576;SDS011;65441;44.748;37.600;2022-12-08T12:10:56;12.57;;;3.88;;
76576;SDS011;65441;44.748;37.600;2022-12-08T12:13:39;8.77;;;3.40;;
76576;SDS011;65441;44.748;37.600;2022-12-08T12:19:13;12.30;;;3.95;;
76576;SDS011;65441;44.748;37.600;2022-12-08T12:21:44;11.73;;;4.00;;
76576;SDS011;65441;44.748;37.600;2022-12-08T12:24:17;8.65;;;3.55;;
76576;SDS011;65441;44.748;37.600;2022-12-08T12:26:52;18.75;;;4.03;;
76576;SDS011;65441;44.748;37.600;2022-12-08T12:29:25;11.02;;;3.70;;
76576;SDS011;65441;44.748;37.600;2022-12-08T12:31:59;9.45;;;3.63;;
76576;SDS011;65441;44.748;37.600;2022-12-08T12:34:30;14.75;;;3.50;;
76576;SDS011;65441;44.748;37.600;2022-12-08T12:37:03;15.45;;;3.30;;
76576;SDS011;65441;44.748;37.600;2022-12-08T12:39:44;10.00;;;3.72;;
76576;SDS011;65441;44.748;37.600;2022-12-08T12:42:35;9.90;;;3.60;;
76576;SDS011;65441;44.748;37.600;2022-12-08T12:45:10;14.63;;;4.05;;
76576;SDS011;65441;44.748;37.600;2022-12-08T12:48:11;7.10;;;3.13;;
76576;SDS011;65441;44.748;37.600;2022-12-08T12:50:47;9.95;;;3.50;;
76576;SDS011;65441;44.748;37.600;2022-12-08T12:59:31;10.02;;;3.45;;
76576;SDS011;65441;44.748;37.600;2022-12-08T13:02:14;8.43;;;3.28;;
76576;SDS011;65441;44.748;37.600;2022-12-08T13:04:52;8.25;;;3.13;;
76576;SDS011;65441;44.748;37.600;2022-12-08T13:07:25;10.35;;;3.50;;
76576;SDS011;65441;44.748;37.600;2022-12-08T13:09:56;10.95;;;3.25;;
76576;SDS011;65441;44.748;37.600;2022-12-08T13:12:27;10.75;;;3.53;;
76576;SDS011;65441;44.748;37.600;2022-12-08T13:15:05;9.65;;;4.00;;
76576;SDS011;65441;44.748;37.600;2022-12-08T13:17:43;14.55;;;4.88;;
76576;SDS011;65441;44.748;37.600;2022-12-08T13:20:18;13.68;;;5.35;;
76576;SDS011;65441;44.748;37.600;2022-12-08T13:25:53;12.93;;;5.47;;
76576;SDS011;65441;44.748;37.600;2022-12-08T13:31:34;12.00;;;5.35;;
76576;SDS011;65441;44.748;37.600;2022-12-08T13:34:05;17.05;;;6.75;;
76576;SDS011;65441;44.748;37.600;2022-12-08T13:36:39;14.45;;;5.03;;
76576;SDS011;65441;44.748;37.600;2022-12-08T13:39:14;12.88;;;4.53;;
76576;SDS011;65441;44.748;37.600;2022-12-08T13:41:51;8.90;;;4.18;;
76576;SDS011;65441;44.748;37.600;2022-12-08T13:44:27;13.48;;;4.40;;
76576;SDS011;65441;44.748;37.600;2022-12-08T13:47:01;11.13;;;4.25;;
76576;SDS011;65441;44.748;37.600;2022-12-08T13:49:33;8.48;;;3.92;;
76576;SDS011;65441;44.748;37.600;2022-12-08T13:52:08;9.68;;;3.90;;
76576;SDS011;65441;44.748;37.600;2022-12-08T13:54:43;9.85;;;4.10;;
76576;SDS011;65441;44.748;37.600;2022-12-08T13:57:17;10.02;;;3.83;;
76576;SDS011;65441;44.748;37.600;2022-12-08T13:59:51;13.00;;;4.10;;
76576;SDS011;65441;44.748;37.600;2022-12-08T14:02:24;12.52;;;3.90;;
76576;SDS011;65441;44.748;37.600;2022-12-08T14:04:55;10.98;;;4.57;;
76576;SDS011;65441;44.748;37.600;2022-12-08T14:07:25;16.35;;;4.50;;
76576;SDS011;65441;44.748;37.600;2022-12-08T14:09:54;9.80;;;4.22;;
76576;SDS011;65441;44.748;37.600;2022-12-08T14:12:25;12.25;;;4.50;;
76576;SDS011;65441;44.748;37.600;2022-12-08T14:14:56;16.45;;;4.40;;
76576;SDS011;65441;44.748;37.600;2022-12-08T14:17:27;13.52;;;4.90;;
76576;SDS011;65441;44.748;37.600;2022-12-08T14:19:56;12.77;;;4.43;;
76576;SDS011;65441;44.748;37.600;2022-12-08T14:22:32;12.50;;;4.55;;
76576;SDS011;65441;44.748;37.600;2022-12-08T14:25:03;10.40;;;4.90;;
76576;SDS011;65441;44.748;37.600;2022-12-08T14:27:33;9.20;;;4.03;;
76576;SDS011;65441;44.748;37.600;2022-12-08T14:30:04;9.63;;;4.03;;
76576;SDS011;65441;44.748;37.600;2022-12-08T14:32:36;10.57;;;3.90;;
76576;SDS011;65441;44.748;37.600;2022-12-08T14:35:17;9.20;;;3.67;;
76576;SDS011;65441;44.748;37.600;2022-12-08T14:37:51;8.82;;;3.97;;
76576;SDS011;65441;44.748;37.600;2022-12-08T14:40:24;13.30;;;4.72;;
76576;SDS011;65441;44.748;37.600;2022-12-08T14:43:04;9.75;;;4.10;;
76576;SDS011;65441;44.748;37.600;2022-12-08T14:45:47;13.57;;;4.28;;
76576;SDS011;65441;44.748;37.600;2022-12-08T14:48:22;8.98;;;3.83;;
76576;SDS011;65441;44.748;37.600;2022-12-08T14:51:03;8.70;;;4.00;;
76576;SDS011;65441;44.748;37.600;2022-12-08T14:53:36;10.38;;;3.80;;
76576;SDS011;65441;44.748;37.600;2022-12-08T14:56:07;11.30;;;3.47;;
76576;SDS011;65441;44.748;37.600;2022-12-08T14:58:45;11.50;;;3.20;;
76576;SDS011;65441;44.748;37.600;2022-12-08T15:01:16;6.82;;;2.92;;
76576;SDS011;65441;44.748;37.600;2022-12-08T15:06:19;7.68;;;3.28;;
76576;SDS011;65441;44.748;37.600;2022-12-08T15:08:52;11.02;;;3.83;;
76576;SDS011;65441;44.748;37.600;2022-12-08T15:11:26;9.95;;;3.60;;
76576;SDS011;65441;44.748;37.600;2022-12-08T15:13:58;7.60;;;3.40;;
76576;SDS011;65441;44.748;37.600;2022-12-08T15:16:29;10.30;;;3.50;;
76576;SDS011;65441;44.748;37.600;2022-12-08T15:19:12;8.30;;;3.60;;
76576;SDS011;65441;44.748;37.600;2022-12-08T15:21:44;8.10;;;3.40;;